sensor_id;sensor_type;location;lat;lon;timestamp;P1;durP1;ratioP1;P2;durP2;ratioP2
60704;SDS011;46545;38.014;-7.874;2022-11-20T00:01:55;16.98;;;6.60;;
60704;SDS011;46545;38.014;-7.874;2022-11-20T00:03:56;18.90;;;7.75;;
60704;SDS011;46545;38.014;-7.874;2022-11-20T00:06:01;14.30;;;7.78;;
60704;SDS011;46545;38.014;-7.874;2022-11-20T00:10:02;20.15;;;8.05;;
60704;SDS011;46545;38.014;-7.874;2022-11-20T00:12:02;14.60;;;7.45;;
60704;SDS011;46545;38.014;-7.874;2022-11-20T00:14:03;19.65;;;9.35;;
60704;SDS011;46545;38.014;-7.874;2022-11-20T00:16:04;22.90;;;9.00;;
60704;SDS011;46545;38.014;-7.874;2022-11-20T00:18:05;18.13;;;8.38;;
60704;SDS011;46545;38.014;-7.874;2022-11-20T00:20:06;18.83;;;8.30;;
60704;SDS011;46545;38.014;-7.874;2022-11-20T00:22:06;17.40;;;7.85;;
60704;SDS011;46545;38.014;-7.874;2022-11-20T00:24:08;16.23;;;7.85;;
60704;SDS011;46545;38.014;-7.874;2022-11-20T00:26:10;14.05;;;6.65;;
60704;SDS011;46545;38.014;-7.874;2022-11-20T00:28:10;15.23;;;6.78;;
60704;SDS011;46545;38.014;-7.874;2022-11-20T00:30:11;13.30;;;6.28;;
60704;SDS011;46545;38.014;-7.874;2022-11-20T00:32:12;12.25;;;5.32;;
60704;SDS011;46545;38.014;-7.874;2022-11-20T00:34:12;12.02;;;4.95;;
60704;SDS011;46545;38.014;-7.874;2022-11-20T00:36:14;9.52;;;5.50;;
60704;SDS011;46545;38.014;-7.874;2022-11-20T00:38:15;7.43;;;4.03;;
60704;SDS011;46545;38.014;-7.874;2022-11-20T00:40:15;12.93;;;4.07;;
60704;SDS011;46545;38.014;-7.874;2022-11-20T00:42:15;7.18;;;3.72;;
60704;SDS011;46545;38.014;-7.874;2022-11-20T00:44:16;10.95;;;4.18;;
60704;SDS011;46545;38.014;-7.874;2022-11-20T00:46:17;6.70;;;3.20;;
60704;SDS011;46545;38.014;-7.874;2022-11-20T00:48:18;7.03;;;3.63;;
60704;SDS011;46545;38.014;-7.874;2022-11-20T00:50:18;8.55;;;3.50;;
60704;SDS011;46545;38.014;-7.874;2022-11-20T00:52:19;9.02;;;3.15;;
60704;SDS011;46545;38.014;-7.874;2022-11-20T00:54:19;7.15;;;3.67;;
60704;SDS011;46545;38.014;-7.874;2022-11-20T00:56:20;8.60;;;3.80;;
60704;SDS011;46545;38.014;-7.874;2022-11-20T00:58:20;8.90;;;3.75;;
60704;SDS011;46545;38.014;-7.874;2022-11-20T01:00:21;8.40;;;2.90;;
60704;SDS011;46545;38.014;-7.874;2022-11-20T01:02:21;10.45;;;3.38;;
60704;SDS011;46545;38.014;-7.874;2022-11-20T01:04:22;10.23;;;3.78;;
60704;SDS011;46545;38.014;-7.874;2022-11-20T01:08:23;8.38;;;3.88;;
60704;SDS011;46545;38.014;-7.874;2022-11-20T01:10:23;9.48;;;3.97;;
60704;SDS011;46545;38.014;-7.874;2022-11-20T01:12:24;8.80;;;2.78;;
60704;SDS011;46545;38.014;-7.874;2022-11-20T01:14:24;6.88;;;3.28;;
60704;SDS011;46545;38.014;-7.874;2022-11-20T01:16:26;7.07;;;2.45;;
60704;SDS011;46545;38.014;-7.874;2022-11-20T01:18:27;9.50;;;3.53;;
60704;SDS011;46545;38.014;-7.874;2022-11-20T01:20:27;7.13;;;3.67;;
60704;SDS011;46545;38.014;-7.874;2022-11-20T01:22:28;5.68;;;2.65;;
60704;SDS011;46545;38.014;-7.874;2022-11-20T01:24:28;9.25;;;2.92;;
60704;SDS011;46545;38.014;-7.874;2022-11-20T01:26:30;8.15;;;2.65;;
60704;SDS011;46545;38.014;-7.874;2022-11-20T01:28:30;10.82;;;4.15;;
60704;SDS011;46545;38.014;-7.874;2022-11-20T01:30:31;7.50;;;2.30;;
60704;SDS011;46545;38.014;-7.874;2022-11-20T01:32:31;6.28;;;2.85;;
60704;SDS011;46545;38.014;-7.874;2022-11-20T01:34:32;10.77;;;4.28;;
60704;SDS011;46545;38.014;-7.874;2022-11-20T01:36:33;11.35;;;3.53;;
60704;SDS011;46545;38.014;-7.874;2022-11-20T01:38:33;10.52;;;2.80;;
60704;SDS011;46545;38.014;-7.874;2022-11-20T01:40:34;7.53;;;2.60;;
60704;SDS011;46545;38.014;-7.874;2022-11-20T01:42:34;7.15;;;2.53;;
60704;SDS011;46545;38.014;-7.874;2022-11-20T01:44:57;6.95;;;2.50;;
60704;SDS011;46545;38.014;-7.874;2022-11-20T01:46:59;9.80;;;2.95;;
60704;SDS011;46545;38.014;-7.874;2022-11-20T01:49:08;7.82;;;3.15;;
60704;SDS011;46545;38.014;-7.874;2022-11-20T01:51:19;6.93;;;3.30;;
60704;SDS011;46545;38.014;-7.874;2022-11-20T01:53:21;5.32;;;2.42;;
60704;SDS011;46545;38.014;-7.874;2022-11-20T01:55:26;4.80;;;2.67;;
60704;SDS011;46545;38.014;-7.874;2022-11-20T01:57:27;8.98;;;3.38;;
60704;SDS011;46545;38.014;-7.874;2022-11-20T01:59:29;6.45;;;2.95;;
60704;SDS011;46545;38.014;-7.874;2022-11-20T02:01:30;5.68;;;2.80;;
60704;SDS011;46545;38.014;-7.874;2022-11-20T02:03:31;6.20;;;2.70;;
60704;SDS011;46545;38.014;-7.874;2022-11-20T02:07:32;8.43;;;3.03;;
60704;SDS011;46545;38.014;-7.874;2022-11-20T02:09:33;8.10;;;3.03;;
60704;SDS011;46545;38.014;-7.874;2022-11-20T02:11:33;8.75;;;3.05;;
60704;SDS011;46545;38.014;-7.874;2022-11-20T02:13:34;7.95;;;3.05;;
60704;SDS011;46545;38.014;-7.874;2022-11-20T02:15:43;9.15;;;3.40;;
60704;SDS011;46545;38.014;-7.874;2022-11-20T02:17:44;10.75;;;2.92;;
60704;SDS011;46545;38.014;-7.874;2022-11-20T02:19:44;9.18;;;2.75;;
60704;SDS011;46545;38.014;-7.874;2022-11-20T02:24:04;6.40;;;3.60;;
60704;SDS011;46545;38.014;-7.874;2022-11-20T02:26:07;8.80;;;2.75;;
60704;SDS011;46545;38.014;-7.874;2022-11-20T02:28:09;6.20;;;2.70;;
60704;SDS011;46545;38.014;-7.874;2022-11-20T02:30:10;10.77;;;3.40;;
60704;SDS011;46545;38.014;-7.874;2022-11-20T02:32:20;8.57;;;3.63;;
60704;SDS011;46545;38.014;-7.874;2022-11-20T02:34:21;10.90;;;3.92;;
60704;SDS011;46545;38.014;-7.874;2022-11-20T02:36:21;13.00;;;4.10;;
60704;SDS011;46545;38.014;-7.874;2022-11-20T02:38:22;7.75;;;3.45;;
60704;SDS011;46545;38.014;-7.874;2022-11-20T02:40:23;7.47;;;3.35;;
60704;SDS011;46545;38.014;-7.874;2022-11-20T02:42:23;16.50;;;4.25;;
60704;SDS011;46545;38.014;-7.874;2022-11-20T02:44:24;7.40;;;4.07;;
60704;SDS011;46545;38.014;-7.874;2022-11-20T02:46:25;13.65;;;5.50;;
60704;SDS011;46545;38.014;-7.874;2022-11-20T02:48:25;11.23;;;3.50;;
60704;SDS011;46545;38.014;-7.874;2022-11-20T02:50:26;7.50;;;3.35;;
60704;SDS011;46545;38.014;-7.874;2022-11-20T02:52:26;9.98;;;3.83;;
60704;SDS011;46545;38.014;-7.874;2022-11-20T02:54:27;13.98;;;3.88;;
60704;SDS011;46545;38.014;-7.874;2022-11-20T02:56:27;8.45;;;3.42;;
60704;SDS011;46545;38.014;-7.874;2022-11-20T02:58:28;7.25;;;2.90;;
60704;SDS011;46545;38.014;-7.874;2022-11-20T03:00:28;11.82;;;3.97;;
60704;SDS011;46545;38.014;-7.874;2022-11-20T03:02:29;10.95;;;4.47;;
60704;SDS011;46545;38.014;-7.874;2022-11-20T03:04:30;11.60;;;4.35;;
60704;SDS011;46545;38.014;-7.874;2022-11-20T03:06:31;9.70;;;4.55;;
60704;SDS011;46545;38.014;-7.874;2022-11-20T03:08:31;14.32;;;4.40;;
60704;SDS011;46545;38.014;-7.874;2022-11-20T03:10:32;12.80;;;4.43;;
60704;SDS011;46545;38.014;-7.874;2022-11-20T03:12:32;9.70;;;3.22;;
60704;SDS011;46545;38.014;-7.874;2022-11-20T03:14:34;10.95;;;4.07;;
60704;SDS011;46545;38.014;-7.874;2022-11-20T03:16:34;9.00;;;2.72;;
60704;SDS011;46545;38.014;-7.874;2022-11-20T03:18:35;8.68;;;3.08;;
60704;SDS011;46545;38.014;-7.874;2022-11-20T03:20:35;8.40;;;3.33;;
60704;SDS011;46545;38.014;-7.874;2022-11-20T03:22:36;5.53;;;2.65;;
60704;SDS011;46545;38.014;-7.874;2022-11-20T03:24:36;12.63;;;3.30;;
60704;SDS011;46545;38.014;-7.874;2022-11-20T03:26:37;7.13;;;2.67;;
60704;SDS011;46545;38.014;-7.874;2022-11-20T03:28:39;8.73;;;2.53;;
60704;SDS011;46545;38.014;-7.874;2022-11-20T03:30:39;6.50;;;2.83;;
60704;SDS011;46545;38.014;-7.874;2022-11-20T03:32:40;7.53;;;2.45;;
60704;SDS011;46545;38.014;-7.874;2022-11-20T03:34:40;8.80;;;2.17;;
60704;SDS011;46545;38.014;-7.874;2022-11-20T03:36:41;7.10;;;2.47;;
60704;SDS011;46545;38.014;-7.874;2022-11-20T03:38:42;8.82;;;3.08;;
60704;SDS011;46545;38.014;-7.874;2022-11-20T03:40:43;7.53;;;2.25;;
60704;SDS011;46545;38.014;-7.874;2022-11-20T03:42:43;3.65;;;2.20;;
60704;SDS011;46545;38.014;-7.874;2022-11-20T03:44:46;9.57;;;2.88;;
60704;SDS011;46545;38.014;-7.874;2022-11-20T03:46:47;6.18;;;2.72;;
60704;SDS011;46545;38.014;-7.874;2022-11-20T03:48:47;9.02;;;2.97;;
60704;SDS011;46545;38.014;-7.874;2022-11-20T03:50:48;5.97;;;2.72;;
60704;SDS011;46545;38.014;-7.874;2022-11-20T03:52:49;8.07;;;2.47;;
60704;SDS011;46545;38.014;-7.874;2022-11-20T03:54:49;7.97;;;2.20;;
60704;SDS011;46545;38.014;-7.874;2022-11-20T03:56:49;13.02;;;3.28;;
60704;SDS011;46545;38.014;-7.874;2022-11-20T03:58:50;4.25;;;2.35;;
60704;SDS011;46545;38.014;-7.874;2022-11-20T04:00:50;3.47;;;2.10;;
60704;SDS011;46545;38.014;-7.874;2022-11-20T04:02:51;3.97;;;2.33;;
60704;SDS011;46545;38.014;-7.874;2022-11-20T04:04:51;7.35;;;2.03;;
60704;SDS011;46545;38.014;-7.874;2022-11-20T04:06:52;5.18;;;2.25;;
60704;SDS011;46545;38.014;-7.874;2022-11-20T04:08:56;7.60;;;2.33;;
60704;SDS011;46545;38.014;-7.874;2022-11-20T04:12:57;6.93;;;2.17;;
60704;SDS011;46545;38.014;-7.874;2022-11-20T04:14:57;5.90;;;2.30;;
60704;SDS011;46545;38.014;-7.874;2022-11-20T04:16:57;6.00;;;2.20;;
60704;SDS011;46545;38.014;-7.874;2022-11-20T04:18:59;5.93;;;2.17;;
60704;SDS011;46545;38.014;-7.874;2022-11-20T04:20:59;9.82;;;2.78;;
60704;SDS011;46545;38.014;-7.874;2022-11-20T04:23:00;8.85;;;2.83;;
60704;SDS011;46545;38.014;-7.874;2022-11-20T04:25:00;7.38;;;2.47;;
60704;SDS011;46545;38.014;-7.874;2022-11-20T04:27:01;7.38;;;3.35;;
60704;SDS011;46545;38.014;-7.874;2022-11-20T04:29:01;9.93;;;2.10;;
60704;SDS011;46545;38.014;-7.874;2022-11-20T04:31:12;7.30;;;3.40;;
60704;SDS011;46545;38.014;-7.874;2022-11-20T04:33:13;9.57;;;3.28;;
60704;SDS011;46545;38.014;-7.874;2022-11-20T04:35:13;7.15;;;2.30;;
60704;SDS011;46545;38.014;-7.874;2022-11-20T04:37:14;7.80;;;1.90;;
60704;SDS011;46545;38.014;-7.874;2022-11-20T04:39:14;6.07;;;2.03;;
60704;SDS011;46545;38.014;-7.874;2022-11-20T04:41:16;7.40;;;1.95;;
60704;SDS011;46545;38.014;-7.874;2022-11-20T04:43:17;10.05;;;2.63;;
60704;SDS011;46545;38.014;-7.874;2022-11-20T04:45:17;4.30;;;1.75;;
60704;SDS011;46545;38.014;-7.874;2022-11-20T04:47:18;15.70;;;2.13;;
60704;SDS011;46545;38.014;-7.874;2022-11-20T04:49:18;6.60;;;2.35;;
60704;SDS011;46545;38.014;-7.874;2022-11-20T04:51:19;7.60;;;1.98;;
60704;SDS011;46545;38.014;-7.874;2022-11-20T04:53:19;6.85;;;2.08;;
60704;SDS011;46545;38.014;-7.874;2022-11-20T04:55:20;7.35;;;2.08;;
60704;SDS011;46545;38.014;-7.874;2022-11-20T04:57:21;7.53;;;2.20;;
60704;SDS011;46545;38.014;-7.874;2022-11-20T04:59:21;11.65;;;2.40;;
60704;SDS011;46545;38.014;-7.874;2022-11-20T05:01:22;5.43;;;2.38;;
60704;SDS011;46545;38.014;-7.874;2022-11-20T05:03:23;5.30;;;2.10;;
60704;SDS011;46545;38.014;-7.874;2022-11-20T05:05:23;5.70;;;1.60;;
60704;SDS011;46545;38.014;-7.874;2022-11-20T05:07:24;4.35;;;1.20;;
60704;SDS011;46545;38.014;-7.874;2022-11-20T05:09:24;10.40;;;1.70;;
60704;SDS011;46545;38.014;-7.874;2022-11-20T05:11:25;10.13;;;2.00;;
60704;SDS011;46545;38.014;-7.874;2022-11-20T05:13:26;9.85;;;1.90;;
60704;SDS011;46545;38.014;-7.874;2022-11-20T05:15:26;8.13;;;1.50;;
60704;SDS011;46545;38.014;-7.874;2022-11-20T05:17:27;12.10;;;2.50;;
60704;SDS011;46545;38.014;-7.874;2022-11-20T05:19:27;6.13;;;1.52;;
60704;SDS011;46545;38.014;-7.874;2022-11-20T05:21:29;11.63;;;2.00;;
60704;SDS011;46545;38.014;-7.874;2022-11-20T05:23:30;7.20;;;1.40;;
60704;SDS011;46545;38.014;-7.874;2022-11-20T05:25:31;5.28;;;1.30;;
60704;SDS011;46545;38.014;-7.874;2022-11-20T05:27:32;9.38;;;1.98;;
60704;SDS011;46545;38.014;-7.874;2022-11-20T05:29:32;7.05;;;1.27;;
60704;SDS011;46545;38.014;-7.874;2022-11-20T05:31:32;7.68;;;1.75;;
60704;SDS011;46545;38.014;-7.874;2022-11-20T05:33:33;7.55;;;1.73;;
60704;SDS011;46545;38.014;-7.874;2022-11-20T05:35:34;10.02;;;1.52;;
60704;SDS011;46545;38.014;-7.874;2022-11-20T05:37:34;10.25;;;1.70;;
60704;SDS011;46545;38.014;-7.874;2022-11-20T05:39:35;6.97;;;1.90;;
60704;SDS011;46545;38.014;-7.874;2022-11-20T05:41:35;8.30;;;2.20;;
60704;SDS011;46545;38.014;-7.874;2022-11-20T05:43:36;8.95;;;1.80;;
60704;SDS011;46545;38.014;-7.874;2022-11-20T05:45:37;10.73;;;1.58;;
60704;SDS011;46545;38.014;-7.874;2022-11-20T05:47:37;12.35;;;1.73;;
60704;SDS011;46545;38.014;-7.874;2022-11-20T05:49:38;6.70;;;1.58;;
60704;SDS011;46545;38.014;-7.874;2022-11-20T05:51:38;23.48;;;2.67;;
60704;SDS011;46545;38.014;-7.874;2022-11-20T05:53:39;5.40;;;1.85;;
60704;SDS011;46545;38.014;-7.874;2022-11-20T05:55:39;21.63;;;3.10;;
60704;SDS011;46545;38.014;-7.874;2022-11-20T05:57:40;5.63;;;1.45;;
60704;SDS011;46545;38.014;-7.874;2022-11-20T05:59:40;4.13;;;2.03;;
60704;SDS011;46545;38.014;-7.874;2022-11-20T06:01:41;6.32;;;1.77;;
60704;SDS011;46545;38.014;-7.874;2022-11-20T06:03:41;6.07;;;1.80;;
60704;SDS011;46545;38.014;-7.874;2022-11-20T06:05:49;7.25;;;1.63;;
60704;SDS011;46545;38.014;-7.874;2022-11-20T06:07:49;10.25;;;1.50;;
60704;SDS011;46545;38.014;-7.874;2022-11-20T06:09:50;13.50;;;2.05;;
60704;SDS011;46545;38.014;-7.874;2022-11-20T06:11:50;5.72;;;1.80;;
60704;SDS011;46545;38.014;-7.874;2022-11-20T06:13:51;8.13;;;1.52;;
60704;SDS011;46545;38.014;-7.874;2022-11-20T06:15:52;4.47;;;1.35;;
60704;SDS011;46545;38.014;-7.874;2022-11-20T06:17:53;4.13;;;1.45;;
60704;SDS011;46545;38.014;-7.874;2022-11-20T06:19:53;9.57;;;1.75;;
60704;SDS011;46545;38.014;-7.874;2022-11-20T06:21:54;8.80;;;2.33;;
60704;SDS011;46545;38.014;-7.874;2022-11-20T06:23:54;12.35;;;1.98;;
60704;SDS011;46545;38.014;-7.874;2022-11-20T06:25:55;5.70;;;1.50;;
60704;SDS011;46545;38.014;-7.874;2022-11-20T06:27:55;8.40;;;1.88;;
60704;SDS011;46545;38.014;-7.874;2022-11-20T06:29:56;10.43;;;1.80;;
60704;SDS011;46545;38.014;-7.874;2022-11-20T06:31:56;7.80;;;1.98;;
60704;SDS011;46545;38.014;-7.874;2022-11-20T06:33:57;9.35;;;1.40;;
60704;SDS011;46545;38.014;-7.874;2022-11-20T06:35:58;5.20;;;1.50;;
60704;SDS011;46545;38.014;-7.874;2022-11-20T06:37:58;5.63;;;1.27;;
60704;SDS011;46545;38.014;-7.874;2022-11-20T06:39:59;12.70;;;2.63;;
60704;SDS011;46545;38.014;-7.874;2022-11-20T06:41:59;2.55;;;1.30;;
60704;SDS011;46545;38.014;-7.874;2022-11-20T06:44:00;6.72;;;1.50;;
60704;SDS011;46545;38.014;-7.874;2022-11-20T06:46:00;7.57;;;1.80;;
60704;SDS011;46545;38.014;-7.874;2022-11-20T06:48:01;8.25;;;1.35;;
60704;SDS011;46545;38.014;-7.874;2022-11-20T06:50:02;7.70;;;1.73;;
60704;SDS011;46545;38.014;-7.874;2022-11-20T06:52:02;5.95;;;1.20;;
60704;SDS011;46545;38.014;-7.874;2022-11-20T06:54:03;10.00;;;1.70;;
60704;SDS011;46545;38.014;-7.874;2022-11-20T06:56:03;5.85;;;1.40;;
60704;SDS011;46545;38.014;-7.874;2022-11-20T06:58:04;8.65;;;1.85;;
60704;SDS011;46545;38.014;-7.874;2022-11-20T07:00:04;5.65;;;2.05;;
60704;SDS011;46545;38.014;-7.874;2022-11-20T07:02:05;3.42;;;1.23;;
60704;SDS011;46545;38.014;-7.874;2022-11-20T07:04:05;3.42;;;1.45;;
60704;SDS011;46545;38.014;-7.874;2022-11-20T07:06:06;6.78;;;1.50;;
60704;SDS011;46545;38.014;-7.874;2022-11-20T07:08:07;8.80;;;1.73;;
60704;SDS011;46545;38.014;-7.874;2022-11-20T07:10:08;10.73;;;2.35;;
60704;SDS011;46545;38.014;-7.874;2022-11-20T07:12:08;11.23;;;1.98;;
60704;SDS011;46545;38.014;-7.874;2022-11-20T07:14:09;7.57;;;2.05;;
60704;SDS011;46545;38.014;-7.874;2022-11-20T07:16:10;7.45;;;1.73;;
60704;SDS011;46545;38.014;-7.874;2022-11-20T07:18:11;7.75;;;1.55;;
60704;SDS011;46545;38.014;-7.874;2022-11-20T07:20:11;5.70;;;1.58;;
60704;SDS011;46545;38.014;-7.874;2022-11-20T07:22:12;8.18;;;1.67;;
60704;SDS011;46545;38.014;-7.874;2022-11-20T07:24:13;7.53;;;1.83;;
60704;SDS011;46545;38.014;-7.874;2022-11-20T07:26:13;7.82;;;2.03;;
60704;SDS011;46545;38.014;-7.874;2022-11-20T07:28:14;3.80;;;1.40;;
60704;SDS011;46545;38.014;-7.874;2022-11-20T07:30:15;9.35;;;1.65;;
60704;SDS011;46545;38.014;-7.874;2022-11-20T07:32:15;4.47;;;1.85;;
60704;SDS011;46545;38.014;-7.874;2022-11-20T07:34:16;4.50;;;2.40;;
60704;SDS011;46545;38.014;-7.874;2022-11-20T07:36:16;6.95;;;1.90;;
60704;SDS011;46545;38.014;-7.874;2022-11-20T07:38:17;9.50;;;1.83;;
60704;SDS011;46545;38.014;-7.874;2022-11-20T07:40:17;18.83;;;3.60;;
60704;SDS011;46545;38.014;-7.874;2022-11-20T07:42:18;4.03;;;1.30;;
60704;SDS011;46545;38.014;-7.874;2022-11-20T07:44:18;4.82;;;1.88;;
60704;SDS011;46545;38.014;-7.874;2022-11-20T07:46:19;7.22;;;1.27;;
60704;SDS011;46545;38.014;-7.874;2022-11-20T07:48:19;4.65;;;1.80;;
60704;SDS011;46545;38.014;-7.874;2022-11-20T07:50:20;7.70;;;1.83;;
60704;SDS011;46545;38.014;-7.874;2022-11-20T07:52:21;3.75;;;1.20;;
60704;SDS011;46545;38.014;-7.874;2022-11-20T07:54:22;6.47;;;1.50;;
60704;SDS011;46545;38.014;-7.874;2022-11-20T07:56:22;9.55;;;1.77;;
60704;SDS011;46545;38.014;-7.874;2022-11-20T07:58:23;9.35;;;2.38;;
60704;SDS011;46545;38.014;-7.874;2022-11-20T08:00:23;6.85;;;1.67;;
60704;SDS011;46545;38.014;-7.874;2022-11-20T08:02:24;6.50;;;1.42;;
60704;SDS011;46545;38.014;-7.874;2022-11-20T08:04:24;7.47;;;2.13;;
60704;SDS011;46545;38.014;-7.874;2022-11-20T08:06:25;10.00;;;1.73;;
60704;SDS011;46545;38.014;-7.874;2022-11-20T08:08:25;2.25;;;1.58;;
60704;SDS011;46545;38.014;-7.874;2022-11-20T08:10:26;4.90;;;1.70;;
60704;SDS011;46545;38.014;-7.874;2022-11-20T08:12:27;4.57;;;1.27;;
60704;SDS011;46545;38.014;-7.874;2022-11-20T08:14:46;3.88;;;1.90;;
60704;SDS011;46545;38.014;-7.874;2022-11-20T08:16:47;4.43;;;2.13;;
60704;SDS011;46545;38.014;-7.874;2022-11-20T08:18:48;2.83;;;1.13;;
60704;SDS011;46545;38.014;-7.874;2022-11-20T08:20:48;7.57;;;2.25;;
60704;SDS011;46545;38.014;-7.874;2022-11-20T08:22:49;3.25;;;1.27;;
60704;SDS011;46545;38.014;-7.874;2022-11-20T08:24:49;6.78;;;1.80;;
60704;SDS011;46545;38.014;-7.874;2022-11-20T08:26:50;6.22;;;1.63;;
60704;SDS011;46545;38.014;-7.874;2022-11-20T08:28:54;8.40;;;2.88;;
60704;SDS011;46545;38.014;-7.874;2022-11-20T08:31:01;9.18;;;1.35;;
60704;SDS011;46545;38.014;-7.874;2022-11-20T08:33:06;4.78;;;1.38;;
60704;SDS011;46545;38.014;-7.874;2022-11-20T08:35:06;7.65;;;1.38;;
60704;SDS011;46545;38.014;-7.874;2022-11-20T08:37:07;8.65;;;1.30;;
60704;SDS011;46545;38.014;-7.874;2022-11-20T08:39:08;4.35;;;1.27;;
60704;SDS011;46545;38.014;-7.874;2022-11-20T08:41:11;4.80;;;1.52;;
60704;SDS011;46545;38.014;-7.874;2022-11-20T08:43:24;4.18;;;1.38;;
60704;SDS011;46545;38.014;-7.874;2022-11-20T08:45:24;10.00;;;1.73;;
60704;SDS011;46545;38.014;-7.874;2022-11-20T08:47:25;6.03;;;1.83;;
60704;SDS011;46545;38.014;-7.874;2022-11-20T08:49:25;3.55;;;1.77;;
60704;SDS011;46545;38.014;-7.874;2022-11-20T08:51:25;5.28;;;1.58;;
60704;SDS011;46545;38.014;-7.874;2022-11-20T08:53:26;3.58;;;1.25;;
60704;SDS011;46545;38.014;-7.874;2022-11-20T08:55:27;3.17;;;1.27;;
60704;SDS011;46545;38.014;-7.874;2022-11-20T08:57:27;6.80;;;1.63;;
60704;SDS011;46545;38.014;-7.874;2022-11-20T08:59:28;4.25;;;1.80;;
60704;SDS011;46545;38.014;-7.874;2022-11-20T09:01:28;5.35;;;1.75;;
60704;SDS011;46545;38.014;-7.874;2022-11-20T09:03:29;2.33;;;1.40;;
60704;SDS011;46545;38.014;-7.874;2022-11-20T09:05:29;5.93;;;1.67;;
60704;SDS011;46545;38.014;-7.874;2022-11-20T09:07:30;3.85;;;2.08;;
60704;SDS011;46545;38.014;-7.874;2022-11-20T09:09:32;5.10;;;1.75;;
60704;SDS011;46545;38.014;-7.874;2022-11-20T09:11:34;3.85;;;2.13;;
60704;SDS011;46545;38.014;-7.874;2022-11-20T09:13:34;5.80;;;2.50;;
60704;SDS011;46545;38.014;-7.874;2022-11-20T09:15:35;5.20;;;2.45;;
60704;SDS011;46545;38.014;-7.874;2022-11-20T09:17:35;7.28;;;2.00;;
60704;SDS011;46545;38.014;-7.874;2022-11-20T09:19:36;3.78;;;1.90;;
60704;SDS011;46545;38.014;-7.874;2022-11-20T09:21:36;6.43;;;2.08;;
60704;SDS011;46545;38.014;-7.874;2022-11-20T09:23:38;10.02;;;2.45;;
60704;SDS011;46545;38.014;-7.874;2022-11-20T09:25:38;4.90;;;1.40;;
60704;SDS011;46545;38.014;-7.874;2022-11-20T09:27:39;3.60;;;1.50;;
60704;SDS011;46545;38.014;-7.874;2022-11-20T09:29:41;7.20;;;1.58;;
60704;SDS011;46545;38.014;-7.874;2022-11-20T09:31:41;7.80;;;2.00;;
60704;SDS011;46545;38.014;-7.874;2022-11-20T09:33:42;9.30;;;1.70;;
60704;SDS011;46545;38.014;-7.874;2022-11-20T09:35:43;4.40;;;1.63;;
60704;SDS011;46545;38.014;-7.874;2022-11-20T09:37:44;6.88;;;1.80;;
60704;SDS011;46545;38.014;-7.874;2022-11-20T09:39:44;3.97;;;1.40;;
60704;SDS011;46545;38.014;-7.874;2022-11-20T09:46:15;2.33;;;1.30;;
60704;SDS011;46545;38.014;-7.874;2022-11-20T09:50:20;6.22;;;1.67;;
60704;SDS011;46545;38.014;-7.874;2022-11-20T09:52:37;3.08;;;1.45;;
60704;SDS011;46545;38.014;-7.874;2022-11-20T09:54:39;4.63;;;1.10;;
60704;SDS011;46545;38.014;-7.874;2022-11-20T09:56:42;7.25;;;1.35;;
60704;SDS011;46545;38.014;-7.874;2022-11-20T09:58:44;2.92;;;0.82;;
60704;SDS011;46545;38.014;-7.874;2022-11-20T10:00:45;3.93;;;1.00;;
60704;SDS011;46545;38.014;-7.874;2022-11-20T10:03:03;3.33;;;1.15;;
60704;SDS011;46545;38.014;-7.874;2022-11-20T10:05:11;6.15;;;0.95;;
60704;SDS011;46545;38.014;-7.874;2022-11-20T10:07:15;4.15;;;0.88;;
60704;SDS011;46545;38.014;-7.874;2022-11-20T10:09:21;4.15;;;1.00;;
60704;SDS011;46545;38.014;-7.874;2022-11-20T10:11:33;3.13;;;0.80;;
60704;SDS011;46545;38.014;-7.874;2022-11-20T10:14:38;0.60;;;0.45;;
60704;SDS011;46545;38.014;-7.874;2022-11-20T10:16:11;6.38;;;1.02;;
60704;SDS011;46545;38.014;-7.874;2022-11-20T10:20:16;2.22;;;1.00;;
60704;SDS011;46545;38.014;-7.874;2022-11-20T10:31:13;8.27;;;2.20;;
60704;SDS011;46545;38.014;-7.874;2022-11-20T10:33:21;8.68;;;2.50;;
60704;SDS011;46545;38.014;-7.874;2022-11-20T10:35:32;5.63;;;2.45;;
60704;SDS011;46545;38.014;-7.874;2022-11-20T10:37:34;6.90;;;3.25;;
60704;SDS011;46545;38.014;-7.874;2022-11-20T10:39:41;5.80;;;3.65;;
60704;SDS011;46545;38.014;-7.874;2022-11-20T10:41:44;8.73;;;4.28;;
60704;SDS011;46545;38.014;-7.874;2022-11-20T10:43:49;9.90;;;4.65;;
60704;SDS011;46545;38.014;-7.874;2022-11-20T10:50:01;7.95;;;2.85;;
60704;SDS011;46545;38.014;-7.874;2022-11-20T10:54:12;1.95;;;1.30;;
60704;SDS011;46545;38.014;-7.874;2022-11-20T10:58:19;6.47;;;1.10;;
60704;SDS011;46545;38.014;-7.874;2022-11-20T11:00:20;3.85;;;0.70;;
60704;SDS011;46545;38.014;-7.874;2022-11-20T11:02:22;2.55;;;0.98;;
60704;SDS011;46545;38.014;-7.874;2022-11-20T11:04:40;4.50;;;0.80;;
60704;SDS011;46545;38.014;-7.874;2022-11-20T11:06:43;2.45;;;1.08;;
60704;SDS011;46545;38.014;-7.874;2022-11-20T11:08:47;4.28;;;2.05;;
60704;SDS011;46545;38.014;-7.874;2022-11-20T11:10:53;4.25;;;1.05;;
60704;SDS011;46545;38.014;-7.874;2022-11-20T11:12:55;2.67;;;0.93;;
60704;SDS011;46545;38.014;-7.874;2022-11-20T11:14:56;3.78;;;1.00;;
60704;SDS011;46545;38.014;-7.874;2022-11-20T11:16:57;3.13;;;1.05;;
60704;SDS011;46545;38.014;-7.874;2022-11-20T11:19:05;5.13;;;1.20;;
60704;SDS011;46545;38.014;-7.874;2022-11-20T11:21:05;2.05;;;0.75;;
60704;SDS011;46545;38.014;-7.874;2022-11-20T11:23:10;3.33;;;0.80;;
60704;SDS011;46545;38.014;-7.874;2022-11-20T11:27:28;5.03;;;1.00;;
60704;SDS011;46545;38.014;-7.874;2022-11-20T11:29:29;6.35;;;1.20;;
60704;SDS011;46545;38.014;-7.874;2022-11-20T11:31:32;5.80;;;1.00;;
60704;SDS011;46545;38.014;-7.874;2022-11-20T11:33:32;5.25;;;1.08;;
60704;SDS011;46545;38.014;-7.874;2022-11-20T11:35:42;4.75;;;1.13;;
60704;SDS011;46545;38.014;-7.874;2022-11-20T11:37:43;3.05;;;1.13;;
60704;SDS011;46545;38.014;-7.874;2022-11-20T11:39:46;9.15;;;1.40;;
60704;SDS011;46545;38.014;-7.874;2022-11-20T11:41:46;3.22;;;1.00;;
60704;SDS011;46545;38.014;-7.874;2022-11-20T11:43:54;4.30;;;0.82;;
60704;SDS011;46545;38.014;-7.874;2022-11-20T11:46:21;4.90;;;0.88;;
60704;SDS011;46545;38.014;-7.874;2022-11-20T11:48:23;3.92;;;1.10;;
60704;SDS011;46545;38.014;-7.874;2022-11-20T11:50:24;3.92;;;1.27;;
60704;SDS011;46545;38.014;-7.874;2022-11-20T11:52:25;4.22;;;1.40;;
60704;SDS011;46545;38.014;-7.874;2022-11-20T11:54:28;5.43;;;1.40;;
60704;SDS011;46545;38.014;-7.874;2022-11-20T11:56:30;4.40;;;1.25;;
60704;SDS011;46545;38.014;-7.874;2022-11-20T11:58:34;2.38;;;0.88;;
60704;SDS011;46545;38.014;-7.874;2022-11-20T12:00:39;4.47;;;1.42;;
60704;SDS011;46545;38.014;-7.874;2022-11-20T12:04:46;4.90;;;1.13;;
60704;SDS011;46545;38.014;-7.874;2022-11-20T12:06:51;3.00;;;1.52;;
60704;SDS011;46545;38.014;-7.874;2022-11-20T12:08:56;7.50;;;1.23;;
60704;SDS011;46545;38.014;-7.874;2022-11-20T12:13:09;4.57;;;1.20;;
60704;SDS011;46545;38.014;-7.874;2022-11-20T12:15:13;4.90;;;1.58;;
60704;SDS011;46545;38.014;-7.874;2022-11-20T12:17:16;4.72;;;1.88;;
60704;SDS011;46545;38.014;-7.874;2022-11-20T12:19:17;5.22;;;2.15;;
60704;SDS011;46545;38.014;-7.874;2022-11-20T12:23:26;7.63;;;2.17;;
60704;SDS011;46545;38.014;-7.874;2022-11-20T12:25:32;7.95;;;2.10;;
60704;SDS011;46545;38.014;-7.874;2022-11-20T12:40:54;8.70;;;2.03;;
60704;SDS011;46545;38.014;-7.874;2022-11-20T12:50:03;5.35;;;2.25;;
60704;SDS011;46545;38.014;-7.874;2022-11-20T13:01:17;8.48;;;4.35;;
60704;SDS011;46545;38.014;-7.874;2022-11-20T13:03:58;10.55;;;5.55;;
60704;SDS011;46545;38.014;-7.874;2022-11-20T13:08:01;9.48;;;6.13;;
60704;SDS011;46545;38.014;-7.874;2022-11-20T13:10:02;8.88;;;4.95;;
60704;SDS011;46545;38.014;-7.874;2022-11-20T13:12:09;11.18;;;5.38;;
60704;SDS011;46545;38.014;-7.874;2022-11-20T13:14:18;6.38;;;3.72;;
60704;SDS011;46545;38.014;-7.874;2022-11-20T13:16:24;9.30;;;3.85;;
60704;SDS011;46545;38.014;-7.874;2022-11-20T13:18:27;9.10;;;3.92;;